sensor_id;sensor_type;location;lat;lon;timestamp;temperature;humidity
16980;DHT22;42288;52.182;21.156;2023-06-10T00:02:20;19.80;95.00
16980;DHT22;42288;52.182;21.156;2023-06-10T00:04:46;19.70;95.20
16980;DHT22;42288;52.182;21.156;2023-06-10T00:07:12;19.70;95.20
16980;DHT22;42288;52.182;21.156;2023-06-10T00:09:38;19.60;95.40
16980;DHT22;42288;52.182;21.156;2023-06-10T00:12:05;19.60;95.50
16980;DHT22;42288;52.182;21.156;2023-06-10T00:14:32;19.60;95.70
16980;DHT22;42288;52.182;21.156;2023-06-10T00:16:58;19.50;95.90
16980;DHT22;42288;52.182;21.156;2023-06-10T00:19:24;19.50;96.00
16980;DHT22;42288;52.182;21.156;2023-06-10T00:21:56;19.30;96.20
16980;DHT22;42288;52.182;21.156;2023-06-10T00:24:22;19.30;96.60
16980;DHT22;42288;52.182;21.156;2023-06-10T00:26:47;19.20;96.10
16980;DHT22;42288;52.182;21.156;2023-06-10T00:29:13;19.20;95.80
16980;DHT22;42288;52.182;21.156;2023-06-10T00:31:39;19.10;95.70
16980;DHT22;42288;52.182;21.156;2023-06-10T00:34:06;19.10;95.50
16980;DHT22;42288;52.182;21.156;2023-06-10T00:36:32;19.00;95.30
16980;DHT22;42288;52.182;21.156;2023-06-10T00:38:58;19.00;95.10
16980;DHT22;42288;52.182;21.156;2023-06-10T00:41:23;18.90;94.70
16980;DHT22;42288;52.182;21.156;2023-06-10T00:43:49;19.00;94.70
16980;DHT22;42288;52.182;21.156;2023-06-10T00:46:15;19.00;94.40
16980;DHT22;42288;52.182;21.156;2023-06-10T00:48:42;18.90;94.20
16980;DHT22;42288;52.182;21.156;2023-06-10T00:51:08;18.90;94.30
16980;DHT22;42288;52.182;21.156;2023-06-10T00:53:36;18.80;94.20
16980;DHT22;42288;52.182;21.156;2023-06-10T00:56:02;18.70;94.10
16980;DHT22;42288;52.182;21.156;2023-06-10T00:58:28;18.70;93.80
16980;DHT22;42288;52.182;21.156;2023-06-10T01:00:54;18.70;93.60
16980;DHT22;42288;52.182;21.156;2023-06-10T01:03:19;18.60;93.10
16980;DHT22;42288;52.182;21.156;2023-06-10T01:05:53;18.60;92.70
16980;DHT22;42288;52.182;21.156;2023-06-10T01:08:52;18.60;92.30
16980;DHT22;42288;52.182;21.156;2023-06-10T01:11:25;18.50;92.20
16980;DHT22;42288;52.182;21.156;2023-06-10T01:13:55;18.50;91.80
16980;DHT22;42288;52.182;21.156;2023-06-10T01:16:22;18.50;91.80
16980;DHT22;42288;52.182;21.156;2023-06-10T01:18:47;18.50;91.40
16980;DHT22;42288;52.182;21.156;2023-06-10T01:21:20;18.40;91.10
16980;DHT22;42288;52.182;21.156;2023-06-10T01:23:47;18.40;90.90
16980;DHT22;42288;52.182;21.156;2023-06-10T01:26:14;18.40;90.80
16980;DHT22;42288;52.182;21.156;2023-06-10T01:28:59;18.30;90.40
16980;DHT22;42288;52.182;21.156;2023-06-10T01:31:47;18.40;90.20
16980;DHT22;42288;52.182;21.156;2023-06-10T01:34:16;18.40;89.10
16980;DHT22;42288;52.182;21.156;2023-06-10T01:36:44;18.40;88.40
16980;DHT22;42288;52.182;21.156;2023-06-10T01:39:11;18.30;87.90
16980;DHT22;42288;52.182;21.156;2023-06-10T01:41:38;18.30;87.50
16980;DHT22;42288;52.182;21.156;2023-06-10T01:44:05;18.30;86.70
16980;DHT22;42288;52.182;21.156;2023-06-10T01:46:30;18.30;85.90
16980;DHT22;42288;52.182;21.156;2023-06-10T01:48:56;18.30;85.70
16980;DHT22;42288;52.182;21.156;2023-06-10T01:51:22;18.30;84.20
16980;DHT22;42288;52.182;21.156;2023-06-10T01:53:47;18.30;83.90
16980;DHT22;42288;52.182;21.156;2023-06-10T01:56:13;18.20;83.30
16980;DHT22;42288;52.182;21.156;2023-06-10T01:58:46;18.10;82.40
16980;DHT22;42288;52.182;21.156;2023-06-10T02:01:11;18.20;82.60
16980;DHT22;42288;52.182;21.156;2023-06-10T02:03:37;18.20;82.40
16980;DHT22;42288;52.182;21.156;2023-06-10T02:06:03;18.10;81.40
16980;DHT22;42288;52.182;21.156;2023-06-10T02:08:29;18.00;81.50
16980;DHT22;42288;52.182;21.156;2023-06-10T02:10:54;18.00;81.50
16980;DHT22;42288;52.182;21.156;2023-06-10T02:13:20;17.90;81.20
16980;DHT22;42288;52.182;21.156;2023-06-10T02:15:45;17.90;81.10
16980;DHT22;42288;52.182;21.156;2023-06-10T02:18:11;17.90;80.70
16980;DHT22;42288;52.182;21.156;2023-06-10T02:20:37;17.70;80.60
16980;DHT22;42288;52.182;21.156;2023-06-10T02:23:03;17.80;81.10
16980;DHT22;42288;52.182;21.156;2023-06-10T02:25:29;17.80;81.00
16980;DHT22;42288;52.182;21.156;2023-06-10T02:27:54;17.70;80.50
16980;DHT22;42288;52.182;21.156;2023-06-10T02:30:20;17.70;80.90
16980;DHT22;42288;52.182;21.156;2023-06-10T02:32:46;17.70;80.90
16980;DHT22;42288;52.182;21.156;2023-06-10T02:35:14;17.60;80.70
16980;DHT22;42288;52.182;21.156;2023-06-10T02:37:39;17.60;81.30
16980;DHT22;42288;52.182;21.156;2023-06-10T02:40:06;17.60;81.20
16980;DHT22;42288;52.182;21.156;2023-06-10T02:42:32;17.60;81.00
16980;DHT22;42288;52.182;21.156;2023-06-10T02:44:57;17.60;81.20
16980;DHT22;42288;52.182;21.156;2023-06-10T02:47:23;17.50;81.10
16980;DHT22;42288;52.182;21.156;2023-06-10T02:49:49;17.50;81.70
16980;DHT22;42288;52.182;21.156;2023-06-10T02:52:14;17.50;81.70
16980;DHT22;42288;52.182;21.156;2023-06-10T02:54:40;17.50;82.00
16980;DHT22;42288;52.182;21.156;2023-06-10T02:57:05;17.50;81.90
16980;DHT22;42288;52.182;21.156;2023-06-10T02:59:31;17.50;82.20
16980;DHT22;42288;52.182;21.156;2023-06-10T03:01:57;17.50;82.40
16980;DHT22;42288;52.182;21.156;2023-06-10T03:04:24;17.50;82.60
16980;DHT22;42288;52.182;21.156;2023-06-10T03:06:50;17.50;82.60
16980;DHT22;42288;52.182;21.156;2023-06-10T03:09:16;17.60;82.50
16980;DHT22;42288;52.182;21.156;2023-06-10T03:11:42;17.70;82.80
16980;DHT22;42288;52.182;21.156;2023-06-10T03:14:07;17.70;82.80
16980;DHT22;42288;52.182;21.156;2023-06-10T03:16:33;17.70;82.70
16980;DHT22;42288;52.182;21.156;2023-06-10T03:18:58;17.70;82.90
16980;DHT22;42288;52.182;21.156;2023-06-10T03:21:24;17.70;83.30
16980;DHT22;42288;52.182;21.156;2023-06-10T03:23:50;17.70;83.10
16980;DHT22;42288;52.182;21.156;2023-06-10T03:26:15;17.90;82.80
16980;DHT22;42288;52.182;21.156;2023-06-10T03:28:41;17.90;82.80
16980;DHT22;42288;52.182;21.156;2023-06-10T03:31:07;18.00;82.90
16980;DHT22;42288;52.182;21.156;2023-06-10T03:33:33;18.10;82.70
16980;DHT22;42288;52.182;21.156;2023-06-10T03:35:59;18.20;82.30
16980;DHT22;42288;52.182;21.156;2023-06-10T03:38:24;18.30;82.60
16980;DHT22;42288;52.182;21.156;2023-06-10T03:40:50;18.40;82.30
16980;DHT22;42288;52.182;21.156;2023-06-10T03:43:16;18.50;82.40
16980;DHT22;42288;52.182;21.156;2023-06-10T03:45:41;18.50;82.00
16980;DHT22;42288;52.182;21.156;2023-06-10T03:48:07;18.60;82.20
16980;DHT22;42288;52.182;21.156;2023-06-10T03:50:34;18.60;81.70
16980;DHT22;42288;52.182;21.156;2023-06-10T03:52:59;18.60;81.70
16980;DHT22;42288;52.182;21.156;2023-06-10T03:55:25;18.60;81.70
16980;DHT22;42288;52.182;21.156;2023-06-10T03:57:51;18.60;81.50
16980;DHT22;42288;52.182;21.156;2023-06-10T04:00:17;18.70;82.60
16980;DHT22;42288;52.182;21.156;2023-06-10T04:02:43;18.70;81.40
16980;DHT22;42288;52.182;21.156;2023-06-10T04:05:15;18.70;81.60
16980;DHT22;42288;52.182;21.156;2023-06-10T04:07:42;18.80;82.10
16980;DHT22;42288;52.182;21.156;2023-06-10T04:10:08;18.80;81.80
16980;DHT22;42288;52.182;21.156;2023-06-10T04:12:35;18.80;82.10
16980;DHT22;42288;52.182;21.156;2023-06-10T04:15:01;18.90;82.30
16980;DHT22;42288;52.182;21.156;2023-06-10T04:17:27;18.90;81.60
16980;DHT22;42288;52.182;21.156;2023-06-10T04:19:53;18.90;82.00
16980;DHT22;42288;52.182;21.156;2023-06-10T04:22:20;19.00;82.70
16980;DHT22;42288;52.182;21.156;2023-06-10T04:24:46;19.00;82.20
16980;DHT22;42288;52.182;21.156;2023-06-10T04:27:12;19.10;82.90
16980;DHT22;42288;52.182;21.156;2023-06-10T04:29:37;19.10;82.10
16980;DHT22;42288;52.182;21.156;2023-06-10T04:32:03;19.20;82.30
16980;DHT22;42288;52.182;21.156;2023-06-10T04:34:31;19.20;81.50
16980;DHT22;42288;52.182;21.156;2023-06-10T04:36:56;19.30;81.50
16980;DHT22;42288;52.182;21.156;2023-06-10T04:39:22;19.40;81.20
16980;DHT22;42288;52.182;21.156;2023-06-10T04:41:48;19.40;80.90
16980;DHT22;42288;52.182;21.156;2023-06-10T04:44:13;19.50;81.20
16980;DHT22;42288;52.182;21.156;2023-06-10T04:46:39;19.60;81.30
16980;DHT22;42288;52.182;21.156;2023-06-10T04:49:04;19.50;80.80
16980;DHT22;42288;52.182;21.156;2023-06-10T04:51:31;19.60;80.80
16980;DHT22;42288;52.182;21.156;2023-06-10T04:53:57;19.60;80.80
16980;DHT22;42288;52.182;21.156;2023-06-10T04:56:23;19.70;80.60
16980;DHT22;42288;52.182;21.156;2023-06-10T04:58:49;19.80;80.60
16980;DHT22;42288;52.182;21.156;2023-06-10T05:01:15;19.80;80.20
16980;DHT22;42288;52.182;21.156;2023-06-10T05:03:41;19.80;80.70
16980;DHT22;42288;52.182;21.156;2023-06-10T05:06:06;19.90;80.60
16980;DHT22;42288;52.182;21.156;2023-06-10T05:08:32;20.10;81.20
16980;DHT22;42288;52.182;21.156;2023-06-10T05:10:58;20.20;80.90
16980;DHT22;42288;52.182;21.156;2023-06-10T05:13:24;20.30;80.50
16980;DHT22;42288;52.182;21.156;2023-06-10T05:15:49;20.40;80.10
16980;DHT22;42288;52.182;21.156;2023-06-10T05:18:15;20.50;80.00
16980;DHT22;42288;52.182;21.156;2023-06-10T05:20:41;20.70;79.70
16980;DHT22;42288;52.182;21.156;2023-06-10T05:23:07;20.70;78.00
16980;DHT22;42288;52.182;21.156;2023-06-10T05:25:33;20.80;78.40
16980;DHT22;42288;52.182;21.156;2023-06-10T05:27:59;21.00;78.80
16980;DHT22;42288;52.182;21.156;2023-06-10T05:30:24;21.00;77.90
16980;DHT22;42288;52.182;21.156;2023-06-10T05:32:51;21.20;78.00
16980;DHT22;42288;52.182;21.156;2023-06-10T05:35:18;21.30;78.10
16980;DHT22;42288;52.182;21.156;2023-06-10T05:37:44;21.40;78.50
16980;DHT22;42288;52.182;21.156;2023-06-10T05:40:10;21.40;77.80
16980;DHT22;42288;52.182;21.156;2023-06-10T05:42:37;21.10;77.90
16980;DHT22;42288;52.182;21.156;2023-06-10T05:45:03;21.20;77.90
16980;DHT22;42288;52.182;21.156;2023-06-10T05:47:29;21.30;78.20
16980;DHT22;42288;52.182;21.156;2023-06-10T05:49:54;21.20;77.80
16980;DHT22;42288;52.182;21.156;2023-06-10T05:52:20;21.10;77.30
16980;DHT22;42288;52.182;21.156;2023-06-10T05:54:46;21.30;78.40
16980;DHT22;42288;52.182;21.156;2023-06-10T05:57:11;21.30;78.30
16980;DHT22;42288;52.182;21.156;2023-06-10T05:59:37;21.30;77.90
16980;DHT22;42288;52.182;21.156;2023-06-10T06:02:03;21.40;77.50
16980;DHT22;42288;52.182;21.156;2023-06-10T06:04:29;21.40;77.90
16980;DHT22;42288;52.182;21.156;2023-06-10T06:06:54;21.50;78.00
16980;DHT22;42288;52.182;21.156;2023-06-10T06:09:20;21.60;78.50
16980;DHT22;42288;52.182;21.156;2023-06-10T06:11:45;21.60;77.30
16980;DHT22;42288;52.182;21.156;2023-06-10T06:14:11;21.60;77.20
16980;DHT22;42288;52.182;21.156;2023-06-10T06:16:37;21.80;78.40
16980;DHT22;42288;52.182;21.156;2023-06-10T06:19:02;21.90;78.20
16980;DHT22;42288;52.182;21.156;2023-06-10T06:21:28;22.00;78.00
16980;DHT22;42288;52.182;21.156;2023-06-10T06:23:53;22.00;77.80
16980;DHT22;42288;52.182;21.156;2023-06-10T06:26:19;21.90;77.80
16980;DHT22;42288;52.182;21.156;2023-06-10T06:28:45;22.00;77.90
16980;DHT22;42288;52.182;21.156;2023-06-10T06:31:10;22.00;77.10
16980;DHT22;42288;52.182;21.156;2023-06-10T06:33:36;22.00;76.90
16980;DHT22;42288;52.182;21.156;2023-06-10T06:36:01;22.00;76.40
16980;DHT22;42288;52.182;21.156;2023-06-10T06:38:27;21.90;77.40
16980;DHT22;42288;52.182;21.156;2023-06-10T06:40:53;21.90;77.50
16980;DHT22;42288;52.182;21.156;2023-06-10T06:43:19;22.00;77.70
16980;DHT22;42288;52.182;21.156;2023-06-10T06:45:45;22.10;77.40
16980;DHT22;42288;52.182;21.156;2023-06-10T06:48:11;22.10;76.80
16980;DHT22;42288;52.182;21.156;2023-06-10T06:50:37;22.30;78.30
16980;DHT22;42288;52.182;21.156;2023-06-10T06:53:03;22.30;76.40
16980;DHT22;42288;52.182;21.156;2023-06-10T06:55:29;22.50;76.60
16980;DHT22;42288;52.182;21.156;2023-06-10T06:57:55;22.60;77.50
16980;DHT22;42288;52.182;21.156;2023-06-10T07:00:21;22.70;76.00
16980;DHT22;42288;52.182;21.156;2023-06-10T07:02:47;22.80;75.20
16980;DHT22;42288;52.182;21.156;2023-06-10T07:05:12;22.90;74.60
16980;DHT22;42288;52.182;21.156;2023-06-10T07:07:38;22.90;74.00
16980;DHT22;42288;52.182;21.156;2023-06-10T07:10:04;23.10;74.80
16980;DHT22;42288;52.182;21.156;2023-06-10T07:12:30;23.20;74.20
16980;DHT22;42288;52.182;21.156;2023-06-10T07:14:55;23.30;73.90
16980;DHT22;42288;52.182;21.156;2023-06-10T07:17:21;23.30;72.80
16980;DHT22;42288;52.182;21.156;2023-06-10T07:19:46;23.30;73.60
16980;DHT22;42288;52.182;21.156;2023-06-10T07:22:12;23.40;74.10
16980;DHT22;42288;52.182;21.156;2023-06-10T07:24:37;23.50;72.60
16980;DHT22;42288;52.182;21.156;2023-06-10T07:27:03;23.30;73.00
16980;DHT22;42288;52.182;21.156;2023-06-10T07:29:29;23.40;72.80
16980;DHT22;42288;52.182;21.156;2023-06-10T07:31:54;23.40;72.60
16980;DHT22;42288;52.182;21.156;2023-06-10T07:34:20;23.40;72.80
16980;DHT22;42288;52.182;21.156;2023-06-10T07:36:46;23.50;73.00
16980;DHT22;42288;52.182;21.156;2023-06-10T07:39:11;23.60;74.20
16980;DHT22;42288;52.182;21.156;2023-06-10T07:41:37;23.60;72.40
16980;DHT22;42288;52.182;21.156;2023-06-10T07:44:02;23.60;71.80
16980;DHT22;42288;52.182;21.156;2023-06-10T07:46:28;23.80;71.30
16980;DHT22;42288;52.182;21.156;2023-06-10T07:48:54;23.70;71.10
16980;DHT22;42288;52.182;21.156;2023-06-10T07:51:20;23.70;70.10
16980;DHT22;42288;52.182;21.156;2023-06-10T07:53:46;23.80;70.90
16980;DHT22;42288;52.182;21.156;2023-06-10T07:56:12;24.10;69.80
16980;DHT22;42288;52.182;21.156;2023-06-10T07:58:38;24.30;68.70
16980;DHT22;42288;52.182;21.156;2023-06-10T08:01:03;24.30;68.90
16980;DHT22;42288;52.182;21.156;2023-06-10T08:03:29;24.10;68.70
16980;DHT22;42288;52.182;21.156;2023-06-10T08:05:55;24.30;69.50
16980;DHT22;42288;52.182;21.156;2023-06-10T08:08:20;24.10;68.00
16980;DHT22;42288;52.182;21.156;2023-06-10T08:10:46;24.40;69.70
16980;DHT22;42288;52.182;21.156;2023-06-10T08:13:12;24.50;68.70
16980;DHT22;42288;52.182;21.156;2023-06-10T08:15:37;24.50;65.50
16980;DHT22;42288;52.182;21.156;2023-06-10T08:18:03;24.50;65.40
16980;DHT22;42288;52.182;21.156;2023-06-10T08:20:29;24.50;66.30
16980;DHT22;42288;52.182;21.156;2023-06-10T08:22:54;24.60;66.70
16980;DHT22;42288;52.182;21.156;2023-06-10T08:25:20;24.30;67.40
16980;DHT22;42288;52.182;21.156;2023-06-10T08:27:47;24.60;67.20
16980;DHT22;42288;52.182;21.156;2023-06-10T08:30:13;24.80;66.50
16980;DHT22;42288;52.182;21.156;2023-06-10T08:32:39;25.00;67.10
16980;DHT22;42288;52.182;21.156;2023-06-10T08:35:05;24.80;63.80
16980;DHT22;42288;52.182;21.156;2023-06-10T08:37:31;24.60;63.80
16980;DHT22;42288;52.182;21.156;2023-06-10T08:39:56;24.80;64.20
16980;DHT22;42288;52.182;21.156;2023-06-10T08:42:26;25.00;63.70
16980;DHT22;42288;52.182;21.156;2023-06-10T08:44:54;24.80;64.10
16980;DHT22;42288;52.182;21.156;2023-06-10T08:47:22;24.80;65.10
16980;DHT22;42288;52.182;21.156;2023-06-10T08:49:48;25.00;61.60
16980;DHT22;42288;52.182;21.156;2023-06-10T08:52:15;24.70;61.90
16980;DHT22;42288;52.182;21.156;2023-06-10T08:54:54;24.40;62.80
16980;DHT22;42288;52.182;21.156;2023-06-10T08:57:22;24.20;63.60
16980;DHT22;42288;52.182;21.156;2023-06-10T08:59:48;24.30;63.40
16980;DHT22;42288;52.182;21.156;2023-06-10T09:02:15;24.50;65.40
16980;DHT22;42288;52.182;21.156;2023-06-10T09:04:44;24.90;65.70
16980;DHT22;42288;52.182;21.156;2023-06-10T09:07:11;25.00;63.50
16980;DHT22;42288;52.182;21.156;2023-06-10T09:09:37;25.20;61.90
16980;DHT22;42288;52.182;21.156;2023-06-10T09:12:04;25.40;60.80
16980;DHT22;42288;52.182;21.156;2023-06-10T09:14:30;25.50;59.90
16980;DHT22;42288;52.182;21.156;2023-06-10T09:16:55;25.70;60.00
16980;DHT22;42288;52.182;21.156;2023-06-10T09:19:25;25.50;58.60
16980;DHT22;42288;52.182;21.156;2023-06-10T09:21:52;25.50;57.70
16980;DHT22;42288;52.182;21.156;2023-06-10T09:24:18;25.50;58.20
16980;DHT22;42288;52.182;21.156;2023-06-10T09:26:43;25.40;59.00
16980;DHT22;42288;52.182;21.156;2023-06-10T09:29:11;25.50;58.50
16980;DHT22;42288;52.182;21.156;2023-06-10T09:31:38;25.40;55.30
16980;DHT22;42288;52.182;21.156;2023-06-10T09:34:14;25.20;53.20
16980;DHT22;42288;52.182;21.156;2023-06-10T09:36:42;25.30;55.30
16980;DHT22;42288;52.182;21.156;2023-06-10T09:39:18;25.50;55.50
16980;DHT22;42288;52.182;21.156;2023-06-10T09:41:45;25.50;56.00
16980;DHT22;42288;52.182;21.156;2023-06-10T09:44:19;25.50;55.80
16980;DHT22;42288;52.182;21.156;2023-06-10T09:46:46;25.40;55.20
16980;DHT22;42288;52.182;21.156;2023-06-10T09:49:13;25.60;55.00
16980;DHT22;42288;52.182;21.156;2023-06-10T09:51:52;25.70;54.30
16980;DHT22;42288;52.182;21.156;2023-06-10T09:54:19;25.80;53.90
16980;DHT22;42288;52.182;21.156;2023-06-10T09:56:47;25.80;54.00
16980;DHT22;42288;52.182;21.156;2023-06-10T09:59:13;25.90;54.50
16980;DHT22;42288;52.182;21.156;2023-06-10T10:01:39;26.10;55.80
16980;DHT22;42288;52.182;21.156;2023-06-10T10:04:05;26.20;53.80
16980;DHT22;42288;52.182;21.156;2023-06-10T10:06:31;26.10;51.20
16980;DHT22;42288;52.182;21.156;2023-06-10T10:08:57;26.10;51.90
16980;DHT22;42288;52.182;21.156;2023-06-10T10:11:24;26.20;53.70
16980;DHT22;42288;52.182;21.156;2023-06-10T10:13:51;26.20;54.30
16980;DHT22;42288;52.182;21.156;2023-06-10T10:16:20;26.30;54.90
16980;DHT22;42288;52.182;21.156;2023-06-10T10:18:54;26.00;54.50
16980;DHT22;42288;52.182;21.156;2023-06-10T10:21:23;26.00;54.20
16980;DHT22;42288;52.182;21.156;2023-06-10T10:26:26;26.10;50.50
16980;DHT22;42288;52.182;21.156;2023-06-10T10:29:10;26.20;52.90
16980;DHT22;42288;52.182;21.156;2023-06-10T10:31:38;26.30;53.20
16980;DHT22;42288;52.182;21.156;2023-06-10T10:34:12;26.60;52.40
16980;DHT22;42288;52.182;21.156;2023-06-10T10:36:38;26.70;52.20
16980;DHT22;42288;52.182;21.156;2023-06-10T10:39:04;26.90;50.40
16980;DHT22;42288;52.182;21.156;2023-06-10T10:41:31;27.10;48.70
16980;DHT22;42288;52.182;21.156;2023-06-10T10:43:58;26.90;48.00
16980;DHT22;42288;52.182;21.156;2023-06-10T10:46:24;27.30;49.40
16980;DHT22;42288;52.182;21.156;2023-06-10T10:48:54;27.40;48.00
16980;DHT22;42288;52.182;21.156;2023-06-10T10:51:23;28.10;48.00
16980;DHT22;42288;52.182;21.156;2023-06-10T10:54:14;28.90;48.20
16980;DHT22;42288;52.182;21.156;2023-06-10T10:57:06;29.60;47.10
16980;DHT22;42288;52.182;21.156;2023-06-10T10:59:25;30.40;46.40
16980;DHT22;42288;52.182;21.156;2023-06-10T11:02:08;30.80;46.10
16980;DHT22;42288;52.182;21.156;2023-06-10T11:04:33;31.80;46.40
16980;DHT22;42288;52.182;21.156;2023-06-10T11:07:06;31.90;45.40
16980;DHT22;42288;52.182;21.156;2023-06-10T11:09:32;31.60;45.40
16980;DHT22;42288;52.182;21.156;2023-06-10T11:11:58;30.90;46.90
16980;DHT22;42288;52.182;21.156;2023-06-10T11:14:33;31.30;47.40
16980;DHT22;42288;52.182;21.156;2023-06-10T11:17:00;32.10;46.10
16980;DHT22;42288;52.182;21.156;2023-06-10T11:19:36;32.60;45.50
16980;DHT22;42288;52.182;21.156;2023-06-10T11:22:05;33.10;44.30
16980;DHT22;42288;52.182;21.156;2023-06-10T11:24:30;33.90;43.80
16980;DHT22;42288;52.182;21.156;2023-06-10T11:27:15;34.40;42.20
16980;DHT22;42288;52.182;21.156;2023-06-10T11:32:30;33.10;43.60
16980;DHT22;42288;52.182;21.156;2023-06-10T11:34:59;33.00;45.20
16980;DHT22;42288;52.182;21.156;2023-06-10T11:37:25;32.90;45.00
16980;DHT22;42288;52.182;21.156;2023-06-10T11:39:54;32.70;45.50
16980;DHT22;42288;52.182;21.156;2023-06-10T11:42:20;32.90;45.80
16980;DHT22;42288;52.182;21.156;2023-06-10T11:44:53;33.60;45.60
16980;DHT22;42288;52.182;21.156;2023-06-10T11:47:19;33.30;44.40
16980;DHT22;42288;52.182;21.156;2023-06-10T11:49:49;32.90;44.80
16980;DHT22;42288;52.182;21.156;2023-06-10T11:52:29;31.90;45.60
16980;DHT22;42288;52.182;21.156;2023-06-10T11:54:57;31.50;47.70
16980;DHT22;42288;52.182;21.156;2023-06-10T11:57:23;31.80;48.30
16980;DHT22;42288;52.182;21.156;2023-06-10T11:59:48;31.70;47.70
16980;DHT22;42288;52.182;21.156;2023-06-10T12:02:19;31.50;48.40
16980;DHT22;42288;52.182;21.156;2023-06-10T12:04:44;31.20;48.40
16980;DHT22;42288;52.182;21.156;2023-06-10T12:07:17;31.10;49.40
16980;DHT22;42288;52.182;21.156;2023-06-10T12:09:44;31.10;49.00
16980;DHT22;42288;52.182;21.156;2023-06-10T12:12:10;30.80;49.20
16980;DHT22;42288;52.182;21.156;2023-06-10T12:15:10;31.30;49.60
16980;DHT22;42288;52.182;21.156;2023-06-10T12:17:37;31.80;48.60
16980;DHT22;42288;52.182;21.156;2023-06-10T12:20:08;32.30;48.20
16980;DHT22;42288;52.182;21.156;2023-06-10T12:22:41;32.50;47.60
16980;DHT22;42288;52.182;21.156;2023-06-10T12:25:07;32.50;47.00
16980;DHT22;42288;52.182;21.156;2023-06-10T12:27:34;31.00;47.10
16980;DHT22;42288;52.182;21.156;2023-06-10T12:30:01;31.00;48.80
16980;DHT22;42288;52.182;21.156;2023-06-10T12:32:46;30.50;50.30
16980;DHT22;42288;52.182;21.156;2023-06-10T12:35:16;30.00;50.20
16980;DHT22;42288;52.182;21.156;2023-06-10T12:38:00;29.60;50.80
16980;DHT22;42288;52.182;21.156;2023-06-10T12:40:31;29.70;51.40
16980;DHT22;42288;52.182;21.156;2023-06-10T12:42:58;29.50;51.20
16980;DHT22;42288;52.182;21.156;2023-06-10T12:45:37;29.50;51.50
16980;DHT22;42288;52.182;21.156;2023-06-10T12:48:09;29.40;52.30
16980;DHT22;42288;52.182;21.156;2023-06-10T12:50:41;29.50;52.10
16980;DHT22;42288;52.182;21.156;2023-06-10T12:53:08;29.40;53.20
16980;DHT22;42288;52.182;21.156;2023-06-10T12:55:34;29.30;52.90
16980;DHT22;42288;52.182;21.156;2023-06-10T12:58:01;28.70;52.40
16980;DHT22;42288;52.182;21.156;2023-06-10T13:00:27;28.40;53.30
16980;DHT22;42288;52.182;21.156;2023-06-10T13:02:56;28.30;53.70
16980;DHT22;42288;52.182;21.156;2023-06-10T13:05:21;28.40;53.50
16980;DHT22;42288;52.182;21.156;2023-06-10T13:07:47;28.40;54.50
16980;DHT22;42288;52.182;21.156;2023-06-10T13:10:14;28.20;54.60
16980;DHT22;42288;52.182;21.156;2023-06-10T13:12:40;27.50;55.30
16980;DHT22;42288;52.182;21.156;2023-06-10T13:15:06;27.60;56.30
16980;DHT22;42288;52.182;21.156;2023-06-10T13:17:32;27.50;56.20
16980;DHT22;42288;52.182;21.156;2023-06-10T13:19:59;27.20;56.60
16980;DHT22;42288;52.182;21.156;2023-06-10T13:22:26;26.90;57.10
16980;DHT22;42288;52.182;21.156;2023-06-10T13:24:52;27.10;57.90
16980;DHT22;42288;52.182;21.156;2023-06-10T13:27:17;27.20;56.10
16980;DHT22;42288;52.182;21.156;2023-06-10T13:29:43;27.50;56.40
16980;DHT22;42288;52.182;21.156;2023-06-10T13:32:09;27.50;56.60
16980;DHT22;42288;52.182;21.156;2023-06-10T13:34:35;27.60;56.10
16980;DHT22;42288;52.182;21.156;2023-06-10T13:37:01;27.70;56.10
16980;DHT22;42288;52.182;21.156;2023-06-10T13:39:29;27.70;56.30
16980;DHT22;42288;52.182;21.156;2023-06-10T13:41:54;28.20;55.40
16980;DHT22;42288;52.182;21.156;2023-06-10T13:44:20;28.10;55.50
16980;DHT22;42288;52.182;21.156;2023-06-10T13:46:46;27.90;55.90
16980;DHT22;42288;52.182;21.156;2023-06-10T13:49:11;27.30;56.20
16980;DHT22;42288;52.182;21.156;2023-06-10T13:51:37;27.20;57.10
16980;DHT22;42288;52.182;21.156;2023-06-10T13:54:03;27.70;56.70
16980;DHT22;42288;52.182;21.156;2023-06-10T13:56:28;28.40;55.90
16980;DHT22;42288;52.182;21.156;2023-06-10T13:58:54;28.00;55.60
16980;DHT22;42288;52.182;21.156;2023-06-10T14:01:20;28.00;55.60
16980;DHT22;42288;52.182;21.156;2023-06-10T14:03:45;28.10;55.20
16980;DHT22;42288;52.182;21.156;2023-06-10T14:06:11;27.70;55.30
16980;DHT22;42288;52.182;21.156;2023-06-10T14:08:40;27.20;56.30
16980;DHT22;42288;52.182;21.156;2023-06-10T14:11:06;27.70;56.70
16980;DHT22;42288;52.182;21.156;2023-06-10T14:13:32;28.50;55.60
16980;DHT22;42288;52.182;21.156;2023-06-10T14:15:59;28.60;54.90
16980;DHT22;42288;52.182;21.156;2023-06-10T14:18:28;28.70;54.90
16980;DHT22;42288;52.182;21.156;2023-06-10T14:20:53;29.10;54.10
16980;DHT22;42288;52.182;21.156;2023-06-10T14:23:19;29.40;52.90
16980;DHT22;42288;52.182;21.156;2023-06-10T14:25:44;28.90;52.80
16980;DHT22;42288;52.182;21.156;2023-06-10T14:28:10;28.30;53.50
16980;DHT22;42288;52.182;21.156;2023-06-10T14:30:36;27.90;54.20
16980;DHT22;42288;52.182;21.156;2023-06-10T14:33:01;27.60;55.30
16980;DHT22;42288;52.182;21.156;2023-06-10T14:35:27;27.50;55.20
16980;DHT22;42288;52.182;21.156;2023-06-10T14:37:53;27.50;55.00
16980;DHT22;42288;52.182;21.156;2023-06-10T14:40:18;27.60;55.20
16980;DHT22;42288;52.182;21.156;2023-06-10T14:42:46;27.30;56.20
16980;DHT22;42288;52.182;21.156;2023-06-10T14:45:12;27.10;56.30
16980;DHT22;42288;52.182;21.156;2023-06-10T14:47:37;26.80;56.20
16980;DHT22;42288;52.182;21.156;2023-06-10T14:50:03;26.60;55.80
16980;DHT22;42288;52.182;21.156;2023-06-10T14:52:29;26.40;55.40
16980;DHT22;42288;52.182;21.156;2023-06-10T14:54:55;26.30;56.10
16980;DHT22;42288;52.182;21.156;2023-06-10T14:57:20;26.10;57.10
16980;DHT22;42288;52.182;21.156;2023-06-10T14:59:46;26.00;57.00
16980;DHT22;42288;52.182;21.156;2023-06-10T15:02:11;26.10;57.60
16980;DHT22;42288;52.182;21.156;2023-06-10T15:04:37;26.00;57.30
16980;DHT22;42288;52.182;21.156;2023-06-10T15:07:02;26.20;57.50
16980;DHT22;42288;52.182;21.156;2023-06-10T15:09:28;26.00;58.30
16980;DHT22;42288;52.182;21.156;2023-06-10T15:11:54;26.00;58.70
16980;DHT22;42288;52.182;21.156;2023-06-10T15:14:20;26.10;58.90
16980;DHT22;42288;52.182;21.156;2023-06-10T15:16:45;26.40;59.10
16980;DHT22;42288;52.182;21.156;2023-06-10T15:19:11;26.30;58.90
16980;DHT22;42288;52.182;21.156;2023-06-10T15:21:37;26.20;58.90